Time;durP1;ratioP1;P1;durP2;ratioP2;P2;SDS_P1;SDS_P2;PMS_P1;PMS_P2;Temp;Humidity;BMP_temperature;BMP_pressure;BME280_temperature;BME280_humidity;BME280_pressure;Samples;Min_cycle;Max_cycle;Signal;HPM_P1;HPM_P2
2022/03/10 00:01:55;;;;;;;18.33;8.33;;;0.10;97.30;;;;;;5055300;28;20244;-86
2022/03/10 00:04:21;;;;;;;18.23;8.40;;;0.10;97.30;;;;;;5054979;28;20187;-86
2022/03/10 00:06:46;;;;;;;13.13;7.53;;;0.00;97.30;;;;;;5055029;28;20186;-86
2022/03/10 00:09:12;;;;;;;22.67;8.70;;;0.00;97.30;;;;;;5054141;28;20705;-86
2022/03/10 00:11:37;;;;;;;20.73;10.50;;;0.00;97.30;;;;;;5054702;28;20203;-86
2022/03/10 00:14:02;;;;;;;16.23;8.63;;;0.00;97.30;;;;;;5054607;28;20682;-86
2022/03/10 00:16:28;;;;;;;18.43;9.17;;;-0.10;97.30;;;;;;5054526;28;20265;-86
2022/03/10 00:18:54;;;;;;;24.37;9.00;;;-0.10;97.30;;;;;;5054771;28;20175;-86
2022/03/10 00:21:19;;;;;;;17.07;8.47;;;-0.10;97.30;;;;;;5072878;28;20697;-86
2022/03/10 00:23:45;;;;;;;15.60;8.13;;;-0.10;97.30;;;;;;5054729;28;20230;-86
2022/03/10 00:26:10;;;;;;;20.30;9.37;;;-0.10;97.30;;;;;;5054713;28;20182;-85
2022/03/10 00:28:36;;;;;;;18.50;9.10;;;-0.10;97.30;;;;;;5054705;28;20697;-87
2022/03/10 00:31:01;;;;;;;19.53;9.60;;;-0.10;97.30;;;;;;5054701;28;20205;-86
2022/03/10 00:33:27;;;;;;;24.47;8.90;;;-0.20;97.30;;;;;;5054847;28;20179;-87
2022/03/10 00:35:52;;;;;;;18.47;8.63;;;-0.20;97.30;;;;;;5038845;28;20201;-87
2022/03/10 00:38:18;;;;;;;20.77;8.53;;;-0.20;97.30;;;;;;5034447;28;20187;-86
2022/03/10 00:40:45;;;;;;;14.50;7.67;;;-0.20;97.30;;;;;;5034205;28;20217;-87
2022/03/10 00:43:14;;;;;;;24.30;9.70;;;-0.20;97.30;;;;;;5034537;28;20858;-86
2022/03/10 00:45:40;;;;;;;21.37;9.23;;;-0.30;97.30;;;;;;5034870;28;20418;-86
2022/03/10 00:48:06;;;;;;;17.57;8.67;;;-0.30;97.30;;;;;;5035295;28;20988;-87
2022/03/10 00:50:32;;;;;;;15.97;8.30;;;-0.30;97.30;;;;;;5035312;28;20430;-87
2022/03/10 00:52:59;;;;;;;13.47;8.03;;;-0.30;97.30;;;;;;5035641;28;20854;-88
2022/03/10 00:55:25;;;;;;;12.67;7.63;;;-0.40;97.30;;;;;;5035665;28;20571;-87
2022/03/10 00:57:50;;;;;;;15.53;8.20;;;-0.40;97.30;;;;;;5035592;28;20415;-87
2022/03/10 01:00:17;;;;;;;15.33;8.07;;;-0.40;97.30;;;;;;5035967;28;20231;-86
2022/03/10 01:02:43;;;;;;;15.50;6.97;;;-0.40;97.30;;;;;;5035287;28;20278;-86
2022/03/10 01:05:09;;;;;;;16.40;8.47;;;-0.50;97.30;;;;;;5035891;28;20465;-86
2022/03/10 01:07:36;;;;;;;21.63;9.33;;;-0.50;97.30;;;;;;5036523;28;20183;-87
2022/03/10 01:10:04;;;;;;;17.53;8.43;;;-0.50;97.30;;;;;;5035813;28;20434;-87
2022/03/10 01:12:29;;;;;;;15.13;7.80;;;-0.50;97.30;;;;;;5036160;28;20878;-87
2022/03/10 01:14:55;;;;;;;16.13;7.27;;;-0.50;97.30;;;;;;5036816;28;20984;-87
2022/03/10 01:17:20;;;;;;;19.33;8.10;;;-0.50;97.30;;;;;;5036526;28;20176;-87
2022/03/10 01:19:47;;;;;;;19.17;8.77;;;-0.50;97.30;;;;;;5037732;28;20196;-87
2022/03/10 01:22:13;;;;;;;21.57;8.80;;;-0.50;97.30;;;;;;5038440;28;20771;-87
2022/03/10 01:24:39;;;;;;;15.60;7.80;;;-0.50;97.30;;;;;;5038268;28;20521;-87
2022/03/10 01:27:05;;;;;;;13.20;7.40;;;-0.50;97.30;;;;;;5038211;28;20182;-86
2022/03/10 01:29:30;;;;;;;20.93;8.13;;;-0.50;97.30;;;;;;5055010;28;20430;-87
2022/03/10 01:31:56;;;;;;;16.90;8.10;;;-0.50;97.30;;;;;;5058038;28;20230;-87
2022/03/10 01:34:21;;;;;;;21.20;7.47;;;-0.50;97.30;;;;;;5057649;28;20199;-87
2022/03/10 01:36:47;;;;;;;17.90;8.97;;;-0.60;97.30;;;;;;5057693;28;20181;-87
2022/03/10 01:39:12;;;;;;;14.20;7.30;;;-0.60;97.30;;;;;;5057781;28;20167;-87
2022/03/10 01:41:38;;;;;;;17.23;7.47;;;-0.60;97.30;;;;;;5057707;28;20791;-87
2022/03/10 01:44:07;;;;;;;18.73;8.50;;;-0.70;97.30;;;;;;5032121;28;20666;-87
2022/03/10 01:46:33;;;;;;;17.13;7.70;;;-0.80;97.30;;;;;;5073040;28;20406;-86
2022/03/10 01:48:59;;;;;;;15.53;7.93;;;-0.80;97.30;;;;;;5057478;28;20417;-87
2022/03/10 01:51:24;;;;;;;21.67;8.67;;;-0.90;97.30;;;;;;5053546;28;20437;-86
2022/03/10 01:53:50;;;;;;;15.30;8.50;;;-0.90;97.30;;;;;;5037670;28;20928;-87
2022/03/10 01:56:17;;;;;;;18.77;8.27;;;-0.90;97.30;;;;;;5037830;28;20190;-87
2022/03/10 01:58:43;;;;;;;19.17;9.00;;;-0.90;97.30;;;;;;5037606;28;20533;-87
2022/03/10 02:01:10;;;;;;;18.50;8.43;;;-1.00;97.30;;;;;;5037144;28;20520;-87
2022/03/10 02:03:40;;;;;;;16.00;7.97;;;-1.00;97.30;;;;;;5037582;28;20797;-87
2022/03/10 02:06:06;;;;;;;15.33;8.53;;;-1.10;97.30;;;;;;5037340;28;20928;-87
2022/03/10 02:11:17;;;;;;;16.63;7.47;;;-1.20;97.30;;;;;;5055579;28;20194;-87
2022/03/10 02:13:43;;;;;;;15.40;7.63;;;-1.20;97.30;;;;;;5037291;28;20798;-87
2022/03/10 02:18:57;;;;;;;20.47;9.10;;;-1.20;97.30;;;;;;5035375;28;20187;-87
2022/03/10 02:21:23;;;;;;;20.13;8.17;;;-1.20;97.30;;;;;;5017594;28;20430;-87
2022/03/10 02:23:49;;;;;;;16.90;7.90;;;-1.20;97.30;;;;;;5017249;28;20177;-87
2022/03/10 02:26:14;;;;;;;16.00;8.00;;;-1.20;97.30;;;;;;5017311;28;20493;-87
2022/03/10 02:28:41;;;;;;;19.83;7.97;;;-1.20;97.30;;;;;;5017087;28;20200;-89
2022/03/10 02:31:07;;;;;;;23.17;8.93;;;-1.20;97.30;;;;;;5016405;28;20199;-87
2022/03/10 02:33:32;;;;;;;19.07;7.90;;;-1.20;97.30;;;;;;5017150;28;21043;-86
2022/03/10 02:35:58;;;;;;;18.20;9.20;;;-1.30;97.30;;;;;;5017118;28;20451;-87
2022/03/10 02:38:24;;;;;;;17.83;8.43;;;-1.30;97.30;;;;;;5017506;28;20972;-87
2022/03/10 02:40:50;;;;;;;15.73;8.13;;;-1.40;97.30;;;;;;5017202;28;20289;-87
2022/03/10 02:43:17;;;;;;;18.80;8.00;;;-1.40;97.30;;;;;;5017242;28;20260;-87
2022/03/10 02:45:43;;;;;;;15.13;7.77;;;-1.40;97.30;;;;;;5017149;28;20430;-87
2022/03/10 02:48:08;;;;;;;22.27;8.63;;;-1.40;97.30;;;;;;5016534;28;20426;-87
2022/03/10 02:50:34;;;;;;;14.87;7.50;;;-1.40;97.30;;;;;;5016672;28;20200;-86
2022/03/10 02:52:59;;;;;;;16.47;7.87;;;-1.40;97.30;;;;;;5056627;28;20728;-88
2022/03/10 02:55:25;;;;;;;15.40;7.80;;;-1.40;97.30;;;;;;5056216;28;20210;-87
2022/03/10 02:57:50;;;;;;;16.30;7.67;;;-1.40;97.30;;;;;;5056680;28;20172;-86
2022/03/10 03:00:18;;;;;;;15.10;8.30;;;-1.30;97.30;;;;;;5074291;28;20697;-88
2022/03/10 03:02:44;;;;;;;15.43;8.17;;;-1.30;97.30;;;;;;5056474;28;20183;-87
2022/03/10 03:05:14;;;;;;;12.67;6.83;;;-1.40;97.30;;;;;;5056317;28;20416;-87
2022/03/10 03:07:40;;;;;;;18.70;7.83;;;-1.40;97.30;;;;;;5056905;28;20171;-87
2022/03/10 03:10:07;;;;;;;18.67;7.60;;;-1.40;97.30;;;;;;5074272;28;20494;-87
2022/03/10 03:12:33;;;;;;;14.10;7.90;;;-1.40;97.30;;;;;;5056403;28;20466;-87
2022/03/10 03:14:59;;;;;;;15.67;7.97;;;-1.40;97.30;;;;;;5055830;28;20522;-88
2022/03/10 03:17:25;;;;;;;18.23;7.20;;;-1.50;97.30;;;;;;5055536;28;20413;-87
2022/03/10 03:19:51;;;;;;;14.80;6.50;;;-1.50;97.30;;;;;;5055942;28;20440;-87
2022/03/10 03:22:17;;;;;;;12.50;6.77;;;-1.50;97.30;;;;;;5056177;28;20269;-87
2022/03/10 03:24:44;;;;;;;18.03;7.97;;;-1.50;97.30;;;;;;5055910;28;20563;-87
2022/03/10 03:27:11;;;;;;;15.57;7.60;;;-1.50;97.30;;;;;;5055791;28;20175;-88
2022/03/10 03:29:37;;;;;;;14.60;8.10;;;-1.60;97.30;;;;;;5055891;28;20449;-88
2022/03/10 03:32:03;;;;;;;17.40;7.47;;;-1.60;97.30;;;;;;5056130;28;20416;-87
2022/03/10 03:34:29;;;;;;;15.93;8.13;;;-1.70;97.30;;;;;;5055576;28;20195;-87
2022/03/10 03:36:55;;;;;;;17.20;7.87;;;-1.70;97.30;;;;;;5055946;28;20425;-86
2022/03/10 03:39:20;;;;;;;16.60;7.90;;;-1.70;97.30;;;;;;5055372;28;20171;-87
2022/03/10 03:41:46;;;;;;;20.70;9.17;;;-1.80;97.30;;;;;;5073642;28;20262;-87
2022/03/10 03:44:12;;;;;;;14.50;8.60;;;-1.80;97.30;;;;;;5054545;28;20176;-87
2022/03/10 03:46:39;;;;;;;21.27;9.83;;;-1.90;97.30;;;;;;5055577;28;20179;-89
2022/03/10 03:49:04;;;;;;;25.03;9.13;;;-1.90;97.30;;;;;;5055695;28;20421;-90
2022/03/10 03:51:31;;;;;;;13.60;7.07;;;-1.90;97.30;;;;;;5055496;28;20524;-88
2022/03/10 03:53:57;;;;;;;12.80;7.27;;;-1.90;97.30;;;;;;5055193;28;20741;-90
2022/03/10 03:56:22;;;;;;;18.33;8.53;;;-2.00;97.30;;;;;;5055446;28;20492;-89
2022/03/10 03:58:48;;;;;;;15.70;7.60;;;-2.00;97.30;;;;;;5055352;28;20171;-91
2022/03/10 04:01:13;;;;;;;17.67;8.20;;;-2.00;97.30;;;;;;5051694;28;20238;-89
2022/03/10 04:03:39;;;;;;;21.67;9.10;;;-2.00;97.30;;;;;;5052794;28;20175;-90
2022/03/10 04:06:04;;;;;;;16.43;8.73;;;-2.00;97.30;;;;;;5051932;28;20247;-91
2022/03/10 04:08:30;;;;;;;19.00;7.93;;;-2.00;97.30;;;;;;5051888;28;20219;-90
2022/03/10 04:10:56;;;;;;;29.53;10.43;;;-2.00;97.30;;;;;;5051523;28;20215;-90
2022/03/10 04:13:24;;;;;;;18.43;8.60;;;-2.00;97.30;;;;;;5052471;28;21024;-90
2022/03/10 04:15:51;;;;;;;25.27;9.67;;;-2.00;97.30;;;;;;5051930;28;20204;-90
2022/03/10 04:18:17;;;;;;;21.03;9.90;;;-2.00;97.30;;;;;;5052511;28;20454;-90
2022/03/10 04:20:47;;;;;;;23.63;9.87;;;-2.00;97.30;;;;;;5052129;28;20446;-90
2022/03/10 04:23:14;;;;;;;40.43;13.03;;;-2.10;97.30;;;;;;5052888;28;20414;-90
2022/03/10 04:25:40;;;;;;;46.60;15.97;;;-2.10;97.30;;;;;;5051431;28;20418;-89
2022/03/10 04:28:05;;;;;;;48.60;14.60;;;-2.10;97.30;;;;;;5051612;28;20956;-89
2022/03/10 04:30:32;;;;;;;40.27;14.47;;;-2.10;97.30;;;;;;5051675;28;20921;-90
2022/03/10 04:32:58;;;;;;;51.43;16.80;;;-2.10;97.30;;;;;;5051523;28;20262;-89
2022/03/10 04:35:24;;;;;;;36.23;13.23;;;-2.10;97.30;;;;;;5052732;28;20559;-89
2022/03/10 04:37:50;;;;;;;51.60;16.70;;;-2.10;97.30;;;;;;5051200;28;20418;-90
2022/03/10 04:40:16;;;;;;;58.37;16.30;;;-2.10;97.30;;;;;;5051583;28;20202;-90
2022/03/10 04:42:42;;;;;;;44.63;14.87;;;-2.20;97.30;;;;;;5051433;28;20493;-90
2022/03/10 04:45:08;;;;;;;49.70;16.40;;;-2.20;97.30;;;;;;5051211;28;20418;-89
2022/03/10 04:47:35;;;;;;;49.13;16.90;;;-2.20;97.30;;;;;;5051024;28;20229;-90
2022/03/10 04:50:03;;;;;;;38.97;12.90;;;-2.20;97.30;;;;;;5052312;28;20496;-90
2022/03/10 04:52:29;;;;;;;32.90;13.37;;;-2.20;97.30;;;;;;5051047;28;20414;-89
2022/03/10 04:54:55;;;;;;;30.40;12.93;;;-2.20;97.30;;;;;;5052031;28;20457;-90
2022/03/10 04:57:21;;;;;;;29.27;10.73;;;-2.20;97.30;;;;;;5053055;28;20172;-91
2022/03/10 04:59:46;;;;;;;25.87;10.23;;;-2.20;97.30;;;;;;5052990;28;20243;-90
2022/03/10 05:02:12;;;;;;;23.27;9.10;;;-2.10;97.30;;;;;;5053541;28;20402;-90
2022/03/10 05:04:38;;;;;;;24.00;9.93;;;-2.20;97.30;;;;;;5052982;28;20274;-90
2022/03/10 05:07:04;;;;;;;22.70;9.23;;;-2.20;97.30;;;;;;5053015;28;20190;-90
2022/03/10 05:09:30;;;;;;;16.00;7.97;;;-2.20;97.30;;;;;;5052158;28;20179;-90
2022/03/10 05:11:56;;;;;;;16.43;9.10;;;-2.30;97.30;;;;;;5053243;28;20564;-90
2022/03/10 05:14:21;;;;;;;16.73;7.50;;;-2.30;97.30;;;;;;5052889;28;20480;-90
2022/03/10 05:16:47;;;;;;;24.87;8.90;;;-2.30;97.30;;;;;;5041888;28;20447;-90
2022/03/10 05:19:13;;;;;;;17.83;8.93;;;-2.30;97.30;;;;;;5027408;28;20213;-90
2022/03/10 05:21:39;;;;;;;19.17;8.40;;;-2.40;97.30;;;;;;5051836;28;20678;-88
2022/03/10 05:24:05;;;;;;;20.50;8.10;;;-2.40;97.30;;;;;;5036248;28;20199;-90
2022/03/10 05:26:30;;;;;;;20.97;8.80;;;-2.40;97.30;;;;;;5033032;28;20844;-90
2022/03/10 05:28:56;;;;;;;21.97;8.37;;;-2.40;97.30;;;;;;5032853;28;20415;-90
2022/03/10 05:31:24;;;;;;;22.90;9.90;;;-2.40;97.30;;;;;;5030775;28;20239;-90
2022/03/10 05:34:03;;;;;;;24.20;9.97;;;-2.50;97.30;;;;;;5034417;28;20192;-90
2022/03/10 05:36:34;;;;;;;17.10;8.20;;;-2.50;97.30;;;;;;5022545;28;20466;-90
2022/03/10 05:39:03;;;;;;;18.43;8.73;;;-2.50;97.30;;;;;;5025648;28;20426;-89
2022/03/10 05:41:32;;;;;;;22.97;10.47;;;-2.50;97.30;;;;;;5033340;28;20509;-90
2022/03/10 05:43:59;;;;;;;35.33;9.47;;;-2.50;97.30;;;;;;5032399;28;20419;-90
2022/03/10 05:46:24;;;;;;;25.13;10.70;;;-2.60;97.30;;;;;;5032174;28;20420;-89
2022/03/10 05:48:50;;;;;;;35.03;11.63;;;-2.60;97.30;;;;;;5033659;28;20433;-89
2022/03/10 05:51:16;;;;;;;98.97;25.83;;;-2.60;97.30;;;;;;5038106;28;20222;-89
2022/03/10 05:53:42;;;;;;;67.00;19.27;;;-2.60;97.30;;;;;;5052264;28;20172;-90
2022/03/10 05:56:07;;;;;;;69.53;18.37;;;-2.50;97.30;;;;;;5052504;28;20473;-90
2022/03/10 05:58:33;;;;;;;134.90;27.30;;;-2.50;97.30;;;;;;5052647;28;20192;-91
2022/03/10 06:01:04;;;;;;;89.23;26.73;;;-2.50;97.30;;;;;;5052487;28;20227;-89
2022/03/10 06:03:29;;;;;;;95.93;24.27;;;-2.50;97.30;;;;;;5050691;28;20180;-90
2022/03/10 06:05:55;;;;;;;117.50;27.33;;;-2.40;97.30;;;;;;5014133;28;20436;-88
2022/03/10 06:08:20;;;;;;;120.27;28.53;;;-2.30;97.30;;;;;;5018520;28;20260;-90
2022/03/10 06:10:46;;;;;;;92.57;23.70;;;-2.30;97.30;;;;;;5016850;28;20197;-90
2022/03/10 06:13:11;;;;;;;72.83;20.40;;;-2.20;97.30;;;;;;5015851;28;20188;-90
2022/03/10 06:15:37;;;;;;;86.73;19.20;;;-2.20;97.30;;;;;;5015999;28;20209;-90
2022/03/10 06:18:02;;;;;;;81.27;20.20;;;-2.20;97.30;;;;;;5016239;28;20184;-90
2022/03/10 06:20:30;;;;;;;80.33;22.33;;;-2.20;97.30;;;;;;5028438;28;20207;-90
2022/03/10 06:22:56;;;;;;;69.27;18.77;;;-2.10;97.30;;;;;;5038009;28;20176;-90
2022/03/10 06:25:21;;;;;;;63.90;18.90;;;-2.10;97.30;;;;;;5037003;28;20793;-90
2022/03/10 06:27:47;;;;;;;80.97;19.33;;;-2.10;97.30;;;;;;5033405;28;20530;-92
2022/03/10 06:30:13;;;;;;;65.50;17.60;;;-2.10;97.30;;;;;;5018468;28;20251;-91
2022/03/10 06:32:38;;;;;;;59.20;17.80;;;-2.00;97.30;;;;;;5050059;28;20580;-90
2022/03/10 06:35:04;;;;;;;53.10;18.23;;;-2.00;97.30;;;;;;5025855;28;20690;-90
2022/03/10 06:37:30;;;;;;;25.40;11.13;;;-1.90;97.30;;;;;;5034365;28;20208;-90
2022/03/10 06:39:55;;;;;;;26.80;10.30;;;-1.80;97.30;;;;;;5049779;28;20980;-89
2022/03/10 06:42:21;;;;;;;25.10;9.57;;;-1.70;97.30;;;;;;5035622;28;20196;-90
2022/03/10 06:44:50;;;;;;;20.87;9.30;;;-1.60;97.30;;;;;;5035075;28;20187;-89
2022/03/10 06:47:15;;;;;;;22.87;11.20;;;-1.50;97.30;;;;;;5035453;28;20553;-90
2022/03/10 06:49:41;;;;;;;32.60;11.53;;;-1.50;97.30;;;;;;5035171;28;20482;-85
2022/03/10 06:52:08;;;;;;;35.77;12.40;;;-1.30;97.30;;;;;;5035282;28;20192;-90
2022/03/10 06:54:34;;;;;;;33.40;13.10;;;-1.30;97.30;;;;;;5034727;28;20610;-88
2022/03/10 06:57:00;;;;;;;35.33;13.20;;;-1.20;97.30;;;;;;5034983;28;20443;-89
2022/03/10 06:59:25;;;;;;;58.67;17.50;;;-1.00;97.30;;;;;;5035641;28;20184;-88
2022/03/10 07:01:51;;;;;;;44.23;15.33;;;-0.90;97.30;;;;;;5037068;28;20262;-88
2022/03/10 07:04:16;;;;;;;29.13;11.53;;;-0.80;97.30;;;;;;5036765;28;20728;-89
2022/03/10 07:06:42;;;;;;;25.03;11.67;;;-0.70;97.30;;;;;;5037881;28;20175;-89
2022/03/10 07:09:07;;;;;;;37.17;12.10;;;-0.50;97.30;;;;;;5037222;28;20631;-88
2022/03/10 07:11:33;;;;;;;26.30;11.07;;;-0.40;97.30;;;;;;5055196;28;20191;-88
2022/03/10 07:13:59;;;;;;;27.30;12.00;;;-0.30;97.30;;;;;;5037019;28;20172;-89
2022/03/10 07:16:24;;;;;;;23.27;12.47;;;-0.10;97.30;;;;;;5037136;28;20172;-88
2022/03/10 07:18:53;;;;;;;23.67;10.27;;;0.00;97.30;;;;;;5037135;28;20267;-88
2022/03/10 07:21:20;;;;;;;18.30;10.00;;;0.10;97.30;;;;;;5036645;28;20713;-88
2022/03/10 07:23:45;;;;;;;20.07;10.10;;;0.30;97.30;;;;;;5054389;28;20452;-88
2022/03/10 07:26:12;;;;;;;26.53;10.20;;;0.40;97.30;;;;;;5037180;28;20472;-88
2022/03/10 07:28:38;;;;;;;50.37;16.87;;;0.60;97.30;;;;;;5036727;28;20239;-86
2022/03/10 07:31:04;;;;;;;36.67;14.10;;;0.70;97.30;;;;;;5036306;28;20442;-87
2022/03/10 07:33:30;;;;;;;36.90;13.20;;;0.90;97.30;;;;;;5036465;28;20422;-85
2022/03/10 07:35:55;;;;;;;25.90;11.40;;;1.00;97.30;;;;;;5036393;28;20704;-84
2022/03/10 07:38:21;;;;;;;23.47;9.40;;;1.20;97.30;;;;;;5036103;28;20262;-86
2022/03/10 07:40:46;;;;;;;21.70;10.23;;;1.30;97.30;;;;;;5036403;28;20196;-86
2022/03/10 07:43:12;;;;;;;20.73;9.30;;;1.50;97.30;;;;;;5035843;28;20172;-86
2022/03/10 07:45:38;;;;;;;18.17;8.83;;;1.60;97.30;;;;;;5035758;28;20651;-86
2022/03/10 07:48:04;;;;;;;23.53;11.30;;;1.80;97.30;;;;;;5036027;28;20202;-86
2022/03/10 07:50:32;;;;;;;18.87;10.13;;;2.00;97.30;;;;;;5036157;28;20199;-86
2022/03/10 07:52:58;;;;;;;25.03;9.10;;;2.20;97.30;;;;;;5055659;28;20424;-86
2022/03/10 07:55:23;;;;;;;24.77;9.80;;;2.40;97.30;;;;;;5056160;28;20582;-86
2022/03/10 07:57:49;;;;;;;21.23;10.50;;;2.60;97.30;;;;;;5056004;28;20194;-86
2022/03/10 08:00:15;;;;;;;16.17;8.63;;;2.80;97.30;;;;;;5055587;28;20238;-86
2022/03/10 08:02:41;;;;;;;18.90;10.27;;;3.00;97.30;;;;;;5056175;28;20305;-85
2022/03/10 08:05:07;;;;;;;20.30;9.73;;;3.30;97.30;;;;;;5055326;28;20923;-86
2022/03/10 08:07:33;;;;;;;17.70;8.30;;;3.40;97.30;;;;;;5055727;28;20251;-84
2022/03/10 08:10:04;;;;;;;22.93;9.60;;;3.70;97.30;;;;;;5054964;28;20441;-86
2022/03/10 08:12:31;;;;;;;20.50;8.83;;;3.80;97.30;;;;;;5055838;28;20185;-85
2022/03/10 08:14:56;;;;;;;19.93;7.90;;;4.00;97.30;;;;;;5073255;28;20457;-87
2022/03/10 08:17:22;;;;;;;20.00;8.60;;;4.20;97.30;;;;;;5055549;28;20417;-87
2022/03/10 08:19:47;;;;;;;17.00;8.47;;;4.40;97.30;;;;;;5055232;28;20269;-86
2022/03/10 08:22:16;;;;;;;15.97;8.97;;;4.70;96.50;;;;;;5055333;28;20180;-86
2022/03/10 08:24:45;;;;;;;20.00;8.43;;;5.00;95.40;;;;;;5054679;28;20176;-87
2022/03/10 08:27:11;;;;;;;13.37;7.10;;;5.20;95.00;;;;;;5055076;28;20916;-87
2022/03/10 08:29:37;;;;;;;21.50;7.57;;;5.40;94.60;;;;;;5054074;28;20410;-88
2022/03/10 08:32:03;;;;;;;17.13;7.70;;;5.50;93.50;;;;;;5054888;28;20410;-87
2022/03/10 08:34:29;;;;;;;13.73;7.70;;;5.70;93.00;;;;;;5055001;28;20199;-87
2022/03/10 08:36:55;;;;;;;28.93;9.83;;;5.90;92.40;;;;;;5055126;28;20470;-87
2022/03/10 08:39:21;;;;;;;21.17;8.87;;;6.00;92.20;;;;;;5055088;28;20512;-87
2022/03/10 08:41:47;;;;;;;20.13;9.50;;;6.10;92.50;;;;;;5054999;28;20441;-87
2022/03/10 08:44:13;;;;;;;17.03;9.00;;;6.20;92.90;;;;;;5054716;28;20646;-87
2022/03/10 08:46:39;;;;;;;18.20;8.80;;;6.40;92.60;;;;;;5073320;28;20463;-84
2022/03/10 08:49:04;;;;;;;17.80;10.00;;;6.40;91.80;;;;;;5055868;28;20179;-90
2022/03/10 08:51:30;;;;;;;23.87;10.17;;;6.50;92.20;;;;;;5048067;28;20438;-88
2022/03/10 08:53:56;;;;;;;29.13;9.10;;;6.50;92.30;;;;;;5053258;28;20241;-86
2022/03/10 08:56:21;;;;;;;22.00;9.67;;;6.50;92.40;;;;;;5035332;28;20178;-87
2022/03/10 08:58:47;;;;;;;23.03;11.40;;;6.40;92.50;;;;;;5053104;28;20198;-88
2022/03/10 09:01:12;;;;;;;22.53;10.33;;;6.50;92.80;;;;;;5031869;28;20228;-86
2022/03/10 09:03:38;;;;;;;22.93;11.13;;;6.50;92.80;;;;;;5031677;28;20169;-87
2022/03/10 09:06:04;;;;;;;19.87;9.83;;;6.70;92.80;;;;;;5032057;28;20629;-87
2022/03/10 09:08:29;;;;;;;24.50;10.07;;;6.80;92.10;;;;;;5031805;28;20427;-87
2022/03/10 09:10:55;;;;;;;18.17;8.80;;;6.90;91.70;;;;;;5031254;28;20211;-87
2022/03/10 09:13:22;;;;;;;22.60;10.10;;;7.00;91.30;;;;;;5031018;28;20183;-85
2022/03/10 09:15:48;;;;;;;26.73;10.80;;;7.10;91.20;;;;;;5031252;28;20204;-86
2022/03/10 09:18:13;;;;;;;21.80;9.57;;;7.30;91.30;;;;;;5031208;28;20557;-87
2022/03/10 09:20:39;;;;;;;23.33;11.27;;;7.40;90.70;;;;;;5031782;28;20911;-87
2022/03/10 09:23:05;;;;;;;26.07;10.80;;;7.50;90.50;;;;;;5032551;28;20864;-85
2022/03/10 09:25:30;;;;;;;18.40;10.50;;;7.60;90.30;;;;;;5031782;28;20561;-86
2022/03/10 09:27:56;;;;;;;19.33;9.27;;;7.70;90.10;;;;;;5033201;28;20545;-85
2022/03/10 09:30:22;;;;;;;20.00;9.53;;;7.80;89.90;;;;;;5032677;28;20204;-86
2022/03/10 09:32:47;;;;;;;18.97;9.43;;;8.00;89.30;;;;;;5031523;28;20180;-87
2022/03/10 09:35:14;;;;;;;18.20;8.53;;;8.20;88.80;;;;;;5031326;28;20720;-87
2022/03/10 09:37:40;;;;;;;26.00;8.30;;;8.30;88.40;;;;;;5031484;28;20532;-87
2022/03/10 09:40:08;;;;;;;24.53;9.50;;;8.30;87.80;;;;;;5031564;28;20441;-87
2022/03/10 09:46:14;;;;;;;31.27;9.10;;;8.50;87.40;;;;;;5013111;28;20411;-87
2022/03/10 09:48:48;;;;;;;17.87;8.13;;;8.70;86.00;;;;;;5015443;28;20424;-86
2022/03/10 09:51:15;;;;;;;19.43;9.40;;;8.80;85.80;;;;;;5020853;28;20431;-87
2022/03/10 09:53:41;;;;;;;22.53;9.87;;;9.00;85.30;;;;;;5035269;28;20565;-86
2022/03/10 09:56:07;;;;;;;21.03;9.30;;;9.10;85.70;;;;;;5035508;28;20489;-85
2022/03/10 09:58:32;;;;;;;17.57;8.57;;;9.30;85.30;;;;;;5035044;28;20415;-86
2022/03/10 10:01:02;;;;;;;18.60;8.10;;;9.50;85.00;;;;;;5048712;28;20234;-87
2022/03/10 10:03:28;;;;;;;21.70;10.10;;;9.70;84.50;;;;;;5054571;28;20164;-86
2022/03/10 10:05:58;;;;;;;20.83;9.30;;;9.90;84.20;;;;;;5056664;28;20532;-87
2022/03/10 10:08:24;;;;;;;20.03;8.70;;;10.00;84.30;;;;;;5054830;28;20180;-87
2022/03/10 10:10:53;;;;;;;17.13;8.33;;;10.00;83.20;;;;;;5054196;28;20445;-87
2022/03/10 10:13:31;;;;;;;19.37;8.30;;;10.00;83.00;;;;;;5054079;28;20414;-87
2022/03/10 10:16:07;;;;;;;17.57;8.77;;;10.00;83.70;;;;;;5054192;28;20458;-87
2022/03/10 10:18:34;;;;;;;18.50;9.40;;;10.10;84.00;;;;;;5055375;28;20414;-87
2022/03/10 10:21:01;;;;;;;19.00;7.00;;;10.30;84.10;;;;;;5054624;28;20468;-87
2022/03/10 10:23:28;;;;;;;19.43;8.30;;;10.20;81.70;;;;;;5054295;28;21031;-87
2022/03/10 10:25:59;;;;;;;20.50;8.33;;;10.20;82.30;;;;;;5055617;28;20440;-87
2022/03/10 10:28:31;;;;;;;19.53;9.43;;;10.20;83.50;;;;;;5054247;28;20406;-87
2022/03/10 10:31:00;;;;;;;23.60;10.00;;;10.20;83.40;;;;;;5055647;28;20441;-87
2022/03/10 10:33:27;;;;;;;18.70;8.40;;;10.10;83.60;;;;;;5054521;28;20422;-87
2022/03/10 10:36:19;;;;;;;21.70;9.80;;;10.10;83.80;;;;;;5054071;28;20462;-87
2022/03/10 10:38:47;;;;;;;23.10;7.63;;;10.20;83.60;;;;;;5054235;28;20442;-87
2022/03/10 10:41:24;;;;;;;20.43;8.80;;;10.20;83.00;;;;;;5053515;28;20484;-87
2022/03/10 10:43:58;;;;;;;18.33;8.13;;;10.20;83.00;;;;;;5053726;28;20401;-86
2022/03/10 10:46:45;;;;;;;15.20;7.60;;;10.30;82.80;;;;;;5053837;28;20482;-87
2022/03/10 10:49:15;;;;;;;17.77;8.87;;;10.40;81.90;;;;;;5054167;28;20421;-87
2022/03/10 10:51:42;;;;;;;18.13;8.40;;;10.60;82.50;;;;;;5053778;28;20433;-86
2022/03/10 10:54:10;;;;;;;19.13;8.10;;;10.80;82.20;;;;;;5054762;28;20402;-87
2022/03/10 10:56:48;;;;;;;26.67;8.47;;;11.00;81.20;;;;;;5055179;28;20434;-87
2022/03/10 10:59:32;;;;;;;21.33;6.37;;;11.00;80.70;;;;;;5053764;28;20464;-87
2022/03/10 11:02:06;;;;;;;11.20;6.67;;;11.00;80.70;;;;;;5053338;28;20437;-86
2022/03/10 11:04:32;;;;;;;20.83;8.53;;;11.10;81.20;;;;;;5053052;28;20501;-87
2022/03/10 11:06:58;;;;;;;13.80;7.07;;;11.20;80.90;;;;;;5053078;28;20426;-87
2022/03/10 11:09:25;;;;;;;11.90;6.83;;;11.20;80.40;;;;;;5053010;28;20267;-87
2022/03/10 11:11:52;;;;;;;12.13;6.30;;;11.30;80.70;;;;;;5053362;28;20410;-86
2022/03/10 11:14:18;;;;;;;16.13;7.40;;;11.40;79.80;;;;;;5053145;28;20461;-86
2022/03/10 11:16:46;;;;;;;13.73;6.50;;;11.40;79.50;;;;;;5053511;28;20414;-87
2022/03/10 11:19:13;;;;;;;12.63;7.33;;;11.40;79.20;;;;;;5054745;28;20438;-86
2022/03/10 11:21:55;;;;;;;15.50;8.23;;;11.30;79.60;;;;;;5052901;28;20798;-87
2022/03/10 11:24:33;;;;;;;17.90;7.37;;;11.30;79.60;;;;;;5054498;28;20407;-87
2022/03/10 11:27:08;;;;;;;13.30;7.40;;;11.50;81.20;;;;;;5053454;28;20509;-87
2022/03/10 11:29:35;;;;;;;15.67;6.90;;;11.60;79.10;;;;;;5053360;28;20418;-86
2022/03/10 11:32:05;;;;;;;13.70;7.13;;;11.60;79.00;;;;;;5054275;28;21130;-86
2022/03/10 11:34:52;;;;;;;13.00;7.27;;;11.80;79.60;;;;;;5049639;28;20451;-86
2022/03/10 11:37:49;;;;;;;13.57;7.27;;;11.90;79.00;;;;;;5032956;28;20446;-87
2022/03/10 11:40:35;;;;;;;13.93;6.83;;;11.90;78.90;;;;;;5032910;28;20454;-86
2022/03/10 11:43:03;;;;;;;14.03;6.37;;;12.10;78.60;;;;;;5032835;28;20415;-87
2022/03/10 11:45:33;;;;;;;13.67;7.10;;;12.40;78.60;;;;;;5033703;28;21096;-86
2022/03/10 11:48:29;;;;;;;13.80;6.60;;;12.60;77.60;;;;;;5032737;28;20824;-85
2022/03/10 11:50:55;;;;;;;13.20;6.23;;;12.70;77.60;;;;;;5035773;28;20521;-86
2022/03/10 11:53:21;;;;;;;14.07;5.73;;;12.70;76.60;;;;;;5052345;28;20418;-85
2022/03/10 11:55:52;;;;;;;9.03;5.00;;;12.80;76.60;;;;;;5052599;28;20454;-87
2022/03/10 11:58:34;;;;;;;11.00;5.60;;;12.90;76.50;;;;;;5052944;28;20267;-86
2022/03/10 12:00:59;;;;;;;11.57;5.60;;;13.00;75.10;;;;;;5052876;28;20470;-86
2022/03/10 12:03:35;;;;;;;13.47;6.50;;;12.90;75.00;;;;;;5052444;28;20418;-86
2022/03/10 12:06:08;;;;;;;12.67;5.90;;;13.00;75.40;;;;;;5052438;28;20248;-87
2022/03/10 12:08:35;;;;;;;11.03;5.43;;;13.00;75.00;;;;;;5052691;28;20422;-87
2022/03/10 12:11:04;;;;;;;12.83;5.50;;;13.10;75.30;;;;;;5053003;28;20453;-86
2022/03/10 12:13:35;;;;;;;9.73;5.50;;;13.30;74.40;;;;;;5052133;28;20468;-87
2022/03/10 12:16:06;;;;;;;17.13;7.50;;;13.10;74.50;;;;;;5052117;28;20516;-87
2022/03/10 12:18:38;;;;;;;15.60;7.23;;;13.10;75.50;;;;;;5052736;28;20417;-86
2022/03/10 12:21:22;;;;;;;17.23;5.87;;;13.40;75.90;;;;;;5052830;28;20812;-86
2022/03/10 12:24:02;;;;;;;16.33;6.47;;;13.80;74.70;;;;;;5053108;28;20426;-86
2022/03/10 12:26:30;;;;;;;14.73;5.90;;;14.00;74.50;;;;;;5054271;28;20522;-86
2022/03/10 12:28:58;;;;;;;14.93;6.60;;;14.00;73.70;;;;;;5052334;28;20964;-86
2022/03/10 12:31:27;;;;;;;11.57;5.57;;;14.20;73.70;;;;;;5052289;28;20484;-87
2022/03/10 12:33:56;;;;;;;12.73;6.30;;;14.30;73.20;;;;;;5053322;28;20439;-87
2022/03/10 12:36:30;;;;;;;10.07;5.33;;;14.40;73.70;;;;;;5051577;28;20543;-86
2022/03/10 12:38:57;;;;;;;16.13;6.37;;;14.30;72.80;;;;;;5051761;28;20428;-87
2022/03/10 12:41:27;;;;;;;11.70;5.50;;;14.30;72.90;;;;;;5051636;28;20476;-87
2022/03/10 12:43:56;;;;;;;8.77;4.97;;;14.40;72.60;;;;;;5033430;28;20419;-88
2022/03/10 12:46:23;;;;;;;10.73;5.40;;;14.40;72.30;;;;;;5021092;28;20431;-87